Terminal Aerodrome Forecast
Issued by NWS

Home | Current Version | Previous Version | Text Only | Print | Product List | Glossary On
Versions: 1 2 3 4 5 6 7 8 9 10 11 12 13 14 15 16
000
FTUS42 TJSJ 312338
TAFJBQ
TAF
TJBQ 312338Z 0100/0124 09009KT P6SM VCSH SCT025 BKN040 BKN090
     FM010200 11003KT P6SM -RA FEW028 SCT050 BKN100
     FM011400 09011KT P6SM FEW022 SCT040 SCT120
     FM011800 07014KT P6SM VCSH SCT025 BKN040
      AMD NOT SKED 0102/0111=

USA.gov is the U.S. government's official web portal to all federal, state and local government web resources and services.